createdAt,value
2023-03-20T00:02:05.921Z,9.43
2023-03-20T00:04:32.983Z,8.70
2023-03-20T00:07:00.029Z,9.95
2023-03-20T00:09:27.276Z,10.35
2023-03-20T00:11:55.501Z,9.70
2023-03-20T00:14:24.480Z,10.38
2023-03-20T00:16:51.703Z,8.95
2023-03-20T00:19:23.410Z,10.55
2023-03-20T00:21:51.115Z,9.45
2023-03-20T00:24:18.192Z,10.30
2023-03-20T00:26:45.882Z,10.27
2023-03-20T00:29:26.859Z,10.02
2023-03-20T00:31:54.387Z,9.65
2023-03-20T00:34:23.733Z,9.50
2023-03-20T00:36:51.805Z,9.82
2023-03-20T00:39:18.970Z,9.65
2023-03-20T00:41:58.627Z,9.60
2023-03-20T00:44:39.007Z,10.15
2023-03-20T00:47:18.599Z,9.35
2023-03-20T00:49:46.134Z,9.70
2023-03-20T00:52:19.417Z,9.45
2023-03-20T00:54:46.732Z,9.77
2023-03-20T00:57:18.238Z,9.95
2023-03-20T01:00:21.424Z,9.95
2023-03-20T01:02:48.406Z,10.02
2023-03-20T01:05:15.364Z,9.65
2023-03-20T01:07:42.500Z,10.27
2023-03-20T01:10:11.574Z,10.23
2023-03-20T01:12:40.869Z,10.20
2023-03-20T01:15:22.282Z,9.88
2023-03-20T01:17:49.650Z,9.68
2023-03-20T01:20:19.352Z,11.05
2023-03-20T01:22:46.583Z,10.88
2023-03-20T01:25:13.780Z,11.02
2023-03-20T01:27:40.809Z,11.38
2023-03-20T01:30:30.088Z,10.50
2023-03-20T01:32:58.960Z,10.48
2023-03-20T01:35:27.554Z,10.45
2023-03-20T01:37:56.364Z,10.60
2023-03-20T01:40:54.243Z,10.93
2023-03-20T01:43:22.371Z,10.65
2023-03-20T01:46:17.893Z,10.98
2023-03-20T01:48:51.180Z,11.63
2023-03-20T01:51:23.324Z,11.25
2023-03-20T01:53:58.446Z,10.68
2023-03-20T01:56:25.739Z,11.90
2023-03-20T01:59:33.172Z,10.55
2023-03-20T02:02:00.434Z,11.10
2023-03-20T02:04:34.413Z,10.38
2023-03-20T02:07:07.428Z,11.02
2023-03-20T02:09:41.223Z,10.93
2023-03-20T02:12:13.326Z,11.13
2023-03-20T02:14:40.725Z,10.55
2023-03-20T02:17:42.268Z,11.10
2023-03-20T02:20:12.749Z,11.10
2023-03-20T02:23:14.450Z,11.63
2023-03-20T02:26:05.142Z,11.45
2023-03-20T02:28:54.134Z,10.82
2023-03-20T02:31:54.459Z,12.25
2023-03-20T02:34:50.835Z,12.48
2023-03-20T02:37:36.648Z,12.05
2023-03-20T02:40:12.604Z,12.93
2023-03-20T02:42:44.852Z,12.07
2023-03-20T02:45:19.928Z,12.52
2023-03-20T02:47:54.804Z,12.00
2023-03-20T02:51:10.040Z,11.52
2023-03-20T02:53:53.163Z,12.98
2023-03-20T02:56:48.361Z,10.85
2023-03-20T02:59:34.698Z,11.93
2023-03-20T03:02:06.027Z,12.05
2023-03-20T03:04:36.328Z,12.13
2023-03-20T03:07:03.913Z,12.38
2023-03-20T03:09:33.621Z,11.45
2023-03-20T03:12:07.753Z,12.20
2023-03-20T03:14:54.289Z,12.25
2023-03-20T03:17:22.331Z,11.35
2023-03-20T03:19:55.971Z,12.35
2023-03-20T03:22:24.391Z,11.70
2023-03-20T03:24:52.670Z,12.48
2023-03-20T03:27:29.169Z,11.90
2023-03-20T03:30:02.128Z,12.55
2023-03-20T03:32:33.766Z,12.50
2023-03-20T03:35:01.330Z,12.38
2023-03-20T03:37:34.375Z,12.80
2023-03-20T03:40:35.519Z,12.63
2023-03-20T03:43:07.332Z,12.20
2023-03-20T03:45:38.524Z,12.20
2023-03-20T03:48:17.248Z,12.15
2023-03-20T03:50:49.324Z,11.35
2023-03-20T03:53:22.873Z,11.93
2023-03-20T03:55:55.015Z,11.38
2023-03-20T03:58:30.508Z,11.68
2023-03-20T04:00:58.772Z,11.40
2023-03-20T04:03:29.325Z,11.75
2023-03-20T04:05:56.359Z,11.23
2023-03-20T04:08:23.320Z,11.88
2023-03-20T04:10:50.361Z,11.23
2023-03-20T04:13:17.387Z,11.82
2023-03-20T04:15:44.552Z,11.70
2023-03-20T04:18:16.697Z,11.52
2023-03-20T04:20:47.988Z,11.35
2023-03-20T04:23:16.768Z,11.07
2023-03-20T04:25:43.759Z,11.65
2023-03-20T04:28:11.987Z,10.85
2023-03-20T04:31:02.422Z,10.88
2023-03-20T04:33:48.077Z,11.43
2023-03-20T04:36:42.398Z,11.15
2023-03-20T04:39:11.956Z,10.88
2023-03-20T04:41:39.805Z,10.48
2023-03-20T04:44:07.288Z,11.10
2023-03-20T04:46:35.427Z,10.95
2023-03-20T04:49:06.450Z,10.40
2023-03-20T04:51:33.408Z,11.00
2023-03-20T04:54:00.468Z,20.70
2023-03-20T04:56:27.613Z,23.15
2023-03-20T04:59:07.138Z,22.67
2023-03-20T05:01:34.112Z,20.08
2023-03-20T05:04:01.664Z,16.90
2023-03-20T05:06:32.413Z,13.63
2023-03-20T05:09:00.893Z,11.77
2023-03-20T05:11:30.184Z,12.05
2023-03-20T05:17:12.316Z,10.40
2023-03-20T05:22:38.798Z,11.73
2023-03-20T05:25:11.534Z,11.52
2023-03-20T05:28:03.425Z,12.02
2023-03-20T05:30:48.087Z,10.57
2023-03-20T05:33:41.545Z,10.48
2023-03-20T05:36:27.584Z,10.15
2023-03-20T05:39:04.080Z,10.73
2023-03-20T05:41:51.867Z,10.45
2023-03-20T05:44:37.547Z,10.27
2023-03-20T05:47:26.038Z,10.30
2023-03-20T05:50:04.434Z,9.93
2023-03-20T05:55:39.137Z,10.85
2023-03-20T05:58:24.543Z,10.68
2023-03-20T06:01:10.149Z,10.75
2023-03-20T06:03:57.361Z,9.90
2023-03-20T06:06:44.437Z,11.27
2023-03-20T06:09:11.883Z,10.73
2023-03-20T06:11:39.123Z,10.48
2023-03-20T06:14:07.218Z,9.20
2023-03-20T06:16:38.676Z,8.82
2023-03-20T06:19:05.692Z,9.73
2023-03-20T06:21:33.066Z,9.27
2023-03-20T06:24:00.698Z,8.77
2023-03-20T06:26:28.724Z,9.82
2023-03-20T06:29:03.507Z,9.75
2023-03-20T06:31:31.959Z,9.68
2023-03-20T06:34:00.896Z,10.40
2023-03-20T06:36:28.122Z,10.00
2023-03-20T06:39:01.697Z,11.20
2023-03-20T06:41:34.715Z,11.23
2023-03-20T06:44:06.688Z,11.35
2023-03-20T06:46:54.094Z,11.57
2023-03-20T06:49:21.527Z,11.07
2023-03-20T06:51:48.778Z,11.25
2023-03-20T06:54:23.185Z,11.38
2023-03-20T06:56:51.497Z,11.68
2023-03-20T06:59:18.476Z,10.77
2023-03-20T07:01:45.656Z,11.43
2023-03-20T07:04:14.725Z,11.57
2023-03-20T07:06:48.633Z,12.45
2023-03-20T07:09:17.610Z,12.88
2023-03-20T07:11:45.184Z,11.32
2023-03-20T07:14:15.440Z,11.82
2023-03-20T07:16:56.490Z,12.45
2023-03-20T07:19:23.549Z,12.05
2023-03-20T07:21:57.596Z,12.75
2023-03-20T07:24:24.890Z,11.75
2023-03-20T07:26:51.879Z,11.93
2023-03-20T07:29:19.936Z,11.63
2023-03-20T07:31:47.190Z,12.18
2023-03-20T07:34:22.600Z,11.80
2023-03-20T07:36:50.360Z,11.70
2023-03-20T07:39:20.186Z,12.15
2023-03-20T07:41:57.343Z,11.00
2023-03-20T07:44:43.425Z,11.32
2023-03-20T07:47:11.824Z,11.93
2023-03-20T07:49:38.906Z,12.45
2023-03-20T07:52:07.972Z,13.07
2023-03-20T07:54:38.086Z,12.70
2023-03-20T07:57:05.545Z,12.32
2023-03-20T07:59:32.808Z,12.70
2023-03-20T08:01:59.850Z,11.95
2023-03-20T08:04:26.848Z,12.70
2023-03-20T08:06:54.034Z,12.40
2023-03-20T08:09:21.134Z,11.52
2023-03-20T08:11:48.154Z,11.43
2023-03-20T08:14:15.427Z,10.57
2023-03-20T08:16:42.577Z,10.60
2023-03-20T08:19:12.592Z,10.02
2023-03-20T08:21:40.425Z,10.38
2023-03-20T08:24:08.720Z,11.07
2023-03-20T08:26:36.394Z,11.55
2023-03-20T08:29:03.369Z,10.57
2023-03-20T08:31:31.677Z,10.57
2023-03-20T08:33:58.809Z,11.45
2023-03-20T08:36:25.892Z,10.35
2023-03-20T08:38:52.937Z,12.15
2023-03-20T08:41:20.417Z,12.35
2023-03-20T08:43:48.079Z,11.23
2023-03-20T08:46:15.378Z,10.70
2023-03-20T08:48:42.521Z,11.15
2023-03-20T08:51:10.082Z,11.07
2023-03-20T08:53:37.108Z,11.10
2023-03-20T08:56:04.291Z,10.68
2023-03-20T08:58:31.286Z,10.77
2023-03-20T09:01:03.044Z,11.00
2023-03-20T09:03:30.271Z,11.20
2023-03-20T09:05:57.405Z,11.10
2023-03-20T09:08:24.925Z,10.52
2023-03-20T09:10:53.405Z,11.13
2023-03-20T09:13:27.819Z,11.43
2023-03-20T09:15:55.668Z,10.85
2023-03-20T09:18:22.750Z,11.90
2023-03-20T09:20:49.842Z,11.90
2023-03-20T09:23:16.998Z,12.02
2023-03-20T09:25:44.077Z,11.88
2023-03-20T09:28:11.317Z,12.02
2023-03-20T09:30:39.569Z,11.90
2023-03-20T09:33:06.655Z,10.77
2023-03-20T09:35:33.831Z,12.32
2023-03-20T09:38:01.080Z,11.50
2023-03-20T09:40:31.246Z,11.45
2023-03-20T09:43:36.760Z,10.20
2023-03-20T09:46:31.371Z,10.75
2023-03-20T09:49:13.168Z,10.60
2023-03-20T09:52:00.680Z,10.02
2023-03-20T09:54:28.505Z,10.20
2023-03-20T09:56:56.860Z,10.10
2023-03-20T09:59:25.251Z,9.95
2023-03-20T10:01:54.318Z,10.18
2023-03-20T10:04:21.594Z,10.07
2023-03-20T10:06:48.599Z,9.02
2023-03-20T10:09:23.915Z,9.75
2023-03-20T10:12:14.684Z,9.82
2023-03-20T10:15:29.244Z,9.52
2023-03-20T10:18:25.644Z,8.52
2023-03-20T10:21:05.151Z,8.77
2023-03-20T10:23:36.118Z,8.10
2023-03-20T10:26:13.549Z,8.68
2023-03-20T10:28:50.929Z,8.93
2023-03-20T10:31:45.797Z,8.40
2023-03-20T10:34:45.069Z,8.68
2023-03-20T10:37:39.947Z,8.73
2023-03-20T10:40:27.561Z,8.27
2023-03-20T10:42:57.248Z,9.10
2023-03-20T10:45:44.677Z,9.30
2023-03-20T10:48:21.153Z,8.77
2023-03-20T10:50:59.814Z,9.27
2023-03-20T10:53:41.629Z,10.13
2023-03-20T10:56:16.802Z,10.18
2023-03-20T10:58:45.433Z,11.05
2023-03-20T11:01:12.468Z,9.88
2023-03-20T11:03:41.428Z,9.88
2023-03-20T11:06:27.893Z,9.73
2023-03-20T11:08:55.088Z,11.23
2023-03-20T11:11:26.572Z,9.93
2023-03-20T11:13:54.038Z,10.82
2023-03-20T11:16:33.094Z,10.73
2023-03-20T11:19:08.571Z,10.35
2023-03-20T11:21:39.118Z,10.60
2023-03-20T11:24:06.756Z,10.82
2023-03-20T11:26:35.889Z,10.95
2023-03-20T11:29:02.920Z,11.13
2023-03-20T11:31:34.614Z,11.27
2023-03-20T11:34:04.591Z,12.18
2023-03-20T11:36:33.304Z,12.38
2023-03-20T11:39:06.429Z,12.77
2023-03-20T11:41:33.543Z,13.13
2023-03-20T11:44:00.628Z,14.00
2023-03-20T11:46:27.720Z,13.27
2023-03-20T11:49:16.122Z,14.00
2023-03-20T11:51:43.064Z,14.35
2023-03-20T11:54:20.816Z,14.50
2023-03-20T11:56:53.954Z,14.88
2023-03-20T11:59:21.126Z,14.65
2023-03-20T12:01:52.746Z,14.82
2023-03-20T12:04:42.886Z,15.00
2023-03-20T12:07:33.206Z,14.57
2023-03-20T12:10:07.685Z,14.40
2023-03-20T12:12:34.564Z,12.63
2023-03-20T12:15:13.445Z,12.68
2023-03-20T12:18:01.524Z,13.27
2023-03-20T12:20:53.184Z,12.25
2023-03-20T12:23:34.256Z,12.93
2023-03-20T12:26:15.105Z,12.38
2023-03-20T12:29:17.586Z,10.40
2023-03-20T12:31:48.123Z,11.27
2023-03-20T12:34:42.411Z,10.85
2023-03-20T12:37:13.384Z,10.68
2023-03-20T12:39:46.533Z,10.68
2023-03-20T12:42:51.404Z,10.15
2023-03-20T12:45:22.068Z,10.73
2023-03-20T12:48:19.907Z,11.65
2023-03-20T12:51:13.556Z,10.10
2023-03-20T12:53:49.424Z,9.57
2023-03-20T12:56:46.817Z,10.50
2023-03-20T12:59:28.629Z,10.32
2023-03-20T13:02:24.470Z,9.77
2023-03-20T13:04:59.962Z,10.30
2023-03-20T13:07:42.863Z,10.13
2023-03-20T13:10:35.346Z,9.82
2023-03-20T13:13:38.290Z,9.68
2023-03-20T13:16:17.991Z,9.02
2023-03-20T13:19:26.345Z,10.20
2023-03-20T13:22:01.773Z,9.45
2023-03-20T13:24:43.162Z,9.07
2023-03-20T13:27:28.806Z,10.63
2023-03-20T13:29:55.685Z,9.77
2023-03-20T13:32:38.562Z,9.68
2023-03-20T13:35:20.739Z,8.90
2023-03-20T13:38:01.574Z,9.63
2023-03-20T13:40:38.374Z,10.30
2023-03-20T13:43:25.528Z,9.98
2023-03-20T13:46:02.559Z,9.70
2023-03-20T13:48:29.439Z,9.93
2023-03-20T13:51:18.454Z,10.13
2023-03-20T13:53:57.937Z,10.23
2023-03-20T13:56:37.708Z,9.98
2023-03-20T13:59:34.309Z,9.90
2023-03-20T14:02:10.688Z,10.30
2023-03-20T14:04:37.968Z,10.95
2023-03-20T14:07:31.904Z,10.82
2023-03-20T14:09:59.395Z,10.23
2023-03-20T14:12:26.717Z,10.60
2023-03-20T14:14:57.019Z,10.80
2023-03-20T14:17:28.576Z,10.83
2023-03-20T14:19:56.164Z,10.48
2023-03-20T14:22:27.735Z,11.07
2023-03-20T14:24:58.475Z,10.38
2023-03-20T14:27:45.075Z,10.82
2023-03-20T14:30:45.917Z,10.43
2023-03-20T14:33:16.301Z,10.48
2023-03-20T14:35:50.922Z,10.85
2023-03-20T14:38:20.992Z,11.35
2023-03-20T14:41:06.611Z,10.50
2023-03-20T14:43:52.283Z,10.75
2023-03-20T14:46:56.392Z,11.45
2023-03-20T14:49:27.754Z,10.50
2023-03-20T14:51:59.598Z,10.65
2023-03-20T14:54:28.927Z,11.05
2023-03-20T14:56:56.116Z,10.63
2023-03-20T14:59:23.851Z,12.43
2023-03-20T15:01:57.849Z,13.10
2023-03-20T15:04:41.249Z,13.85
2023-03-20T15:07:25.860Z,13.43
2023-03-20T15:09:55.682Z,13.27
2023-03-20T15:12:27.631Z,12.63
2023-03-20T15:14:59.244Z,13.55
2023-03-20T15:17:28.499Z,13.65
2023-03-20T15:20:22.234Z,12.73
2023-03-20T15:22:52.781Z,13.10
2023-03-20T15:25:20.885Z,12.55
2023-03-20T15:27:47.878Z,11.73
2023-03-20T15:30:16.558Z,13.85
2023-03-20T15:32:43.939Z,14.02
2023-03-20T15:35:19.264Z,14.75
2023-03-20T15:37:47.140Z,13.20
2023-03-20T15:40:34.420Z,14.30
2023-03-20T15:43:19.292Z,13.20
2023-03-20T15:45:46.326Z,13.02
2023-03-20T15:48:21.658Z,13.23
2023-03-20T15:50:53.915Z,13.80
2023-03-20T15:53:30.955Z,12.75
2023-03-20T15:56:17.630Z,13.43
2023-03-20T15:58:45.000Z,14.10
2023-03-20T16:01:21.017Z,13.23
2023-03-20T16:03:48.204Z,12.38
2023-03-20T16:06:19.176Z,13.10
2023-03-20T16:08:46.978Z,12.73
2023-03-20T16:11:15.954Z,13.00
2023-03-20T16:13:47.192Z,13.18
2023-03-20T16:16:22.036Z,13.80
2023-03-20T16:18:49.529Z,13.07
2023-03-20T16:21:23.468Z,14.15
2023-03-20T16:23:52.638Z,13.02
2023-03-20T16:26:21.378Z,12.88
2023-03-20T16:28:55.492Z,12.40
2023-03-20T16:31:26.105Z,12.30
2023-03-20T16:33:53.158Z,12.43
2023-03-20T16:36:22.746Z,12.48
2023-03-20T16:39:10.033Z,11.95
2023-03-20T16:41:40.601Z,12.73
2023-03-20T16:44:12.356Z,11.70
2023-03-20T16:46:54.611Z,11.95
2023-03-20T16:49:44.570Z,12.32
2023-03-20T16:52:13.105Z,12.38
2023-03-20T16:54:40.261Z,12.68
2023-03-20T16:57:14.733Z,12.88
2023-03-20T16:59:41.792Z,13.80
2023-03-20T17:02:38.335Z,13.23
2023-03-20T17:05:08.020Z,13.35
2023-03-20T17:07:35.090Z,13.77
2023-03-20T17:10:24.208Z,13.00
2023-03-20T17:12:55.056Z,12.68
2023-03-20T17:15:23.595Z,13.18
2023-03-20T17:17:50.906Z,13.52
2023-03-20T17:20:22.968Z,11.85
2023-03-20T17:22:49.997Z,13.18
2023-03-20T17:25:17.012Z,12.23
2023-03-20T17:27:44.072Z,13.77
2023-03-20T17:30:14.515Z,11.95
2023-03-20T17:32:41.436Z,12.35
2023-03-20T17:35:08.594Z,11.70
2023-03-20T17:37:35.525Z,12.00
2023-03-20T17:40:02.458Z,12.20
2023-03-20T17:42:31.581Z,12.30
2023-03-20T17:44:59.221Z,11.63
2023-03-20T17:47:26.977Z,11.23
2023-03-20T17:49:54.813Z,11.77
2023-03-20T17:52:26.515Z,12.13
2023-03-20T17:54:53.571Z,11.65
2023-03-20T17:57:27.412Z,11.02
2023-03-20T17:59:54.375Z,11.52
2023-03-20T18:02:21.354Z,11.77
2023-03-20T18:04:48.619Z,10.75
2023-03-20T18:07:15.896Z,11.25
2023-03-20T18:09:43.135Z,12.65
2023-03-20T18:12:15.598Z,11.82
2023-03-20T18:14:43.701Z,11.18
2023-03-20T18:17:13.929Z,12.30
2023-03-20T18:19:40.949Z,11.48
2023-03-20T18:22:08.042Z,12.82
2023-03-20T18:24:35.435Z,13.27
2023-03-20T18:27:02.621Z,13.57
2023-03-20T18:29:29.601Z,15.50
2023-03-20T18:31:56.729Z,17.63
2023-03-20T18:34:23.764Z,16.13
2023-03-20T18:36:51.239Z,18.58
2023-03-20T18:39:22.635Z,15.45
2023-03-20T18:41:49.750Z,13.73
2023-03-20T18:44:16.759Z,12.60
2023-03-20T18:46:43.753Z,12.57
2023-03-20T18:49:14.643Z,13.10
2023-03-20T18:51:41.623Z,13.30
2023-03-20T18:54:08.879Z,13.60
2023-03-20T18:56:37.754Z,12.38
2023-03-20T18:59:09.532Z,13.38
2023-03-20T19:01:36.560Z,13.30
2023-03-20T19:04:03.782Z,12.90
2023-03-20T19:06:32.318Z,12.45
2023-03-20T19:08:59.629Z,12.70
2023-03-20T19:11:27.057Z,12.23
2023-03-20T19:13:54.344Z,11.82
2023-03-20T19:16:25.209Z,12.18
2023-03-20T19:18:53.584Z,14.23
2023-03-20T19:21:26.010Z,14.20
2023-03-20T19:24:04.782Z,15.10
2023-03-20T19:26:32.494Z,13.40
2023-03-20T19:29:01.020Z,14.18
2023-03-20T19:31:28.470Z,13.80
2023-03-20T19:33:56.851Z,13.13
2023-03-20T19:36:27.783Z,12.43
2023-03-20T19:38:55.829Z,12.90
2023-03-20T19:41:22.813Z,12.80
2023-03-20T19:43:53.411Z,12.23
2023-03-20T19:46:38.733Z,13.57
2023-03-20T19:49:07.105Z,14.73
2023-03-20T19:51:34.014Z,13.35
2023-03-20T19:54:00.959Z,13.90
2023-03-20T19:56:27.869Z,15.23
2023-03-20T19:58:54.998Z,13.18
2023-03-20T20:01:24.186Z,14.95
2023-03-20T20:03:53.708Z,13.98
2023-03-20T20:06:22.358Z,14.95
2023-03-20T20:08:51.356Z,14.60
2023-03-20T20:11:19.049Z,13.38
2023-03-20T20:14:07.114Z,14.13
2023-03-20T20:16:35.702Z,13.32
2023-03-20T20:19:02.938Z,12.23
2023-03-20T20:24:17.005Z,12.30
2023-03-20T20:26:54.189Z,11.85
2023-03-20T20:29:24.843Z,11.98
2023-03-20T20:31:51.862Z,11.50
2023-03-20T20:39:53.804Z,11.27
2023-03-20T20:42:20.788Z,11.38
2023-03-20T20:44:47.863Z,11.80
2023-03-20T20:47:15.361Z,11.85
2023-03-20T20:49:42.478Z,10.85
2023-03-20T20:52:09.326Z,12.05
2023-03-20T20:54:36.344Z,11.23
2023-03-20T20:57:03.481Z,11.48
2023-03-20T20:59:30.587Z,12.18
2023-03-20T21:01:57.648Z,12.13
2023-03-20T21:04:24.754Z,11.15
2023-03-20T21:07:09.400Z,11.27
2023-03-20T21:09:37.566Z,11.32
2023-03-20T21:12:04.781Z,11.77
2023-03-20T21:14:31.776Z,12.30
2023-03-20T21:17:01.614Z,12.65
2023-03-20T21:19:36.030Z,11.85
2023-03-20T21:22:03.668Z,12.40
2023-03-20T21:24:33.865Z,11.57
2023-03-20T21:27:06.898Z,11.75
2023-03-20T21:29:34.170Z,11.77
2023-03-20T21:32:01.391Z,11.27
2023-03-20T21:34:29.253Z,12.15
2023-03-20T21:36:57.887Z,12.90
2023-03-20T21:39:27.642Z,12.63
2023-03-20T21:41:54.814Z,12.90
2023-03-20T21:45:01.089Z,12.10
2023-03-20T21:48:04.008Z,13.07
2023-03-20T21:53:20.184Z,14.20
2023-03-20T21:56:37.289Z,14.45
2023-03-20T22:01:53.916Z,14.38
2023-03-20T22:05:00.864Z,13.77
2023-03-20T22:18:28.804Z,13.73
2023-03-20T22:21:22.475Z,13.85
2023-03-20T22:27:13.059Z,15.10
2023-03-20T22:32:40.178Z,12.57
2023-03-20T22:38:21.873Z,12.88
2023-03-20T22:40:57.566Z,12.90
2023-03-20T22:43:57.182Z,12.95
2023-03-20T22:45:57.516Z,11.93
2023-03-20T22:48:30.450Z,12.82
2023-03-20T22:50:57.394Z,14.40
2023-03-20T22:53:24.317Z,14.48
2023-03-20T22:55:52.406Z,15.10
2023-03-20T22:58:19.391Z,13.98
2023-03-20T23:00:46.569Z,15.60
2023-03-20T23:03:22.748Z,14.50
2023-03-20T23:05:56.968Z,14.48
2023-03-20T23:08:24.791Z,14.85
2023-03-20T23:10:52.020Z,14.52
2023-03-20T23:13:20.385Z,13.93
2023-03-20T23:15:47.543Z,14.65
2023-03-20T23:18:14.947Z,15.27
2023-03-20T23:20:41.871Z,14.38
2023-03-20T23:23:10.262Z,14.65
2023-03-20T23:25:39.753Z,15.05
2023-03-20T23:28:08.578Z,14.10
2023-03-20T23:30:46.558Z,13.80
2023-03-20T23:33:16.679Z,13.80
2023-03-20T23:35:43.778Z,14.32
2023-03-20T23:38:10.852Z,14.95
2023-03-20T23:40:38.020Z,14.15
2023-03-20T23:43:05.048Z,13.93
2023-03-20T23:45:32.258Z,14.77
2023-03-20T23:47:59.178Z,14.73
2023-03-20T23:53:20.221Z,13.98
2023-03-20T23:55:52.098Z,15.23
2023-03-20T23:58:19.171Z,15.02
